Airfield :
LOGIN :

Register | Disclaimer

   EN    FR    IT 

 










Legend :    VFR   Marginal VFR   IFR   Intensive IFR   Very Intensive IFR
Visi :
Ceiling :
>= 8 km
>= 3000ft
5 to 8 km
1000 to 3000 ft
1500m to 5 km
500 to 1000 ft
800 to 1500m
200 to 500 ft
< 800m
< 200 ft
Symbols :   Thunderstorms  Fog  Heavy snow  Heavy precipitations  Wind > 20 kt
SIGMETs :     Misc.  Thunderstorms  Icing  Turbulence  Mountain Waves  Volcanic Ashes






- Airport Elevation : 257 ft
- IATA code : MAN


EGCC - Manchester

CURRENT METAR :
  • 011720Z AUTO 30011KT 9999 SCT026 OVC037 08/02 Q1021 NOSIG

EXPIRED METARs :
  • 011650Z AUTO 29012KT 9999 SCT025 SCT035 OVC042 08/03 Q1021 NOSIG
  • 011620Z AUTO 30012KT 9999 SCT026 BKN030 OVC039 08/02 Q1021 NOSIG
  • 011550Z AUTO 29010KT 9999 SCT026 SCT031 OVC042 08/03 Q1021 NOSIG
  • 011520Z AUTO 29014KT 9999 SCT026 SCT033 OVC045 08/02 Q1021 NOSIG
  • 011450Z AUTO 29014KT 9999 BKN031 BKN040 OVC048 08/01 Q1022 NOSIG

TAF TAF EGCC
Valid from the 01 at 18:00 until the 03 at 00:00 UTC


011701Z 0118/0224 29008KT 9999 BKN040
BECMG 0121/0124 BKN012
PROB30
TEMPO 0200/0203 8000 -RA
PROB30
TEMPO 0200/0212 BKN008
TEMPO 0209/0215 28015G25KT
PROB30
TEMPO 0209/0212 5000 RA
BECMG 0212/0215 BKN025
PROB30
TEMPO 0212/0216 7000 SHRA
ATIS : +44 161 499 2324



MET'MAP, your aeronautical weather chart ! - Copyright ORBIFLY December 2007 - Disclaimer

ORBIFLY MET'MAP TEAM :

Programming & Development : Alexandra Zaïnal
Concept & original design : Baudouin d'Aumeries
Assistance for programming : Marc-Olivier Méhu
Technical & hardware support : Manuel Goepfert

Contact : metmap@orbifly.com




SOURCES & CREDITS :

   NOAA